Time;durP1;ratioP1;P1;durP2;ratioP2;P2;SDS_P1;SDS_P2;PMS_P1;PMS_P2;Temp;Humidity;BMP_temperature;BMP_pressure;BME280_temperature;BME280_humidity;BME280_pressure;Samples;Min_cycle;Max_cycle;Signal;HPM_P1;HPM_P2
2022/06/21 00:00:32;;;;;;;1.40;1.30;;;26.50;44.20;;;;;;5026650;28;20483;-43
2022/06/21 00:03:07;;;;;;;1.70;1.40;;;26.50;43.50;;;;;;5017601;28;20447;-43
2022/06/21 00:05:42;;;;;;;3.00;1.50;;;26.50;43.40;;;;;;5029174;28;20447;-44
2022/06/21 00:08:21;;;;;;;8.87;1.73;;;26.40;43.40;;;;;;5026134;28;20450;-43
2022/06/21 00:10:47;;;;;;;2.70;1.20;;;26.40;44.00;;;;;;5022779;28;20935;-46
2022/06/21 00:13:17;;;;;;;1.50;1.40;;;26.40;43.60;;;;;;5028107;28;20462;-43
2022/06/21 00:15:44;;;;;;;1.40;1.30;;;26.40;43.50;;;;;;5028603;28;20443;-42
2022/06/21 00:18:13;;;;;;;1.67;1.37;;;26.40;43.80;;;;;;5029454;28;20496;-43
2022/06/21 00:20:39;;;;;;;1.70;1.60;;;26.30;43.80;;;;;;5027703;28;20439;-42
2022/06/21 00:23:06;;;;;;;1.70;1.60;;;26.30;43.80;;;;;;5027444;28;20447;-44
2022/06/21 00:25:32;;;;;;;1.93;1.40;;;26.40;43.60;;;;;;5028587;28;20513;-44
2022/06/21 00:27:57;;;;;;;1.63;1.53;;;26.30;43.40;;;;;;5025414;28;20555;-43
2022/06/21 00:30:24;;;;;;;1.50;1.40;;;26.20;43.70;;;;;;5027846;28;20252;-44
2022/06/21 00:32:53;;;;;;;1.40;1.30;;;26.20;43.90;;;;;;5024477;28;20205;-45
2022/06/21 00:35:21;;;;;;;1.30;1.10;;;26.20;43.80;;;;;;5028010;28;20440;-45
2022/06/21 00:37:48;;;;;;;1.50;1.40;;;26.20;43.90;;;;;;5022376;28;20525;-46
2022/06/21 00:40:21;;;;;;;1.53;1.43;;;26.10;44.40;;;;;;5029725;28;20455;-46
2022/06/21 00:43:02;;;;;;;1.60;1.50;;;26.00;44.30;;;;;;5021897;28;20821;-43
2022/06/21 00:45:33;;;;;;;1.40;1.30;;;26.00;44.20;;;;;;5023115;28;20531;-43
2022/06/21 00:48:27;;;;;;;3.63;1.40;;;25.90;44.30;;;;;;5024880;28;20983;-43
2022/06/21 00:51:23;;;;;;;1.33;1.23;;;25.90;44.50;;;;;;5024459;28;20471;-43
2022/06/21 00:53:57;;;;;;;1.20;1.10;;;25.90;44.50;;;;;;4995701;28;20470;-44
2022/06/21 00:56:37;;;;;;;1.20;1.10;;;25.90;44.40;;;;;;5025102;28;20562;-43
2022/06/21 00:59:15;;;;;;;1.30;1.20;;;26.00;44.10;;;;;;5023676;28;20509;-43
2022/06/21 01:01:41;;;;;;;3.40;1.60;;;26.10;43.00;;;;;;5024552;28;20513;-43
2022/06/21 01:04:15;;;;;;;1.90;1.00;;;26.10;43.10;;;;;;5025500;28;20444;-44
2022/06/21 01:06:47;;;;;;;2.00;1.00;;;26.00;43.20;;;;;;5028748;28;20204;-43
2022/06/21 01:09:14;;;;;;;1.40;1.30;;;26.00;42.70;;;;;;5022506;28;20482;-43
2022/06/21 01:11:48;;;;;;;1.47;1.37;;;25.90;42.80;;;;;;5026684;28;20456;-47
2022/06/21 01:14:16;;;;;;;4.77;1.30;;;25.90;43.20;;;;;;5027821;28;20428;-43
2022/06/21 01:16:43;;;;;;;2.17;1.40;;;25.90;43.20;;;;;;5029364;28;20468;-47
2022/06/21 01:19:19;;;;;;;1.40;1.30;;;25.80;43.10;;;;;;5023395;28;20443;-46
2022/06/21 01:21:50;;;;;;;1.37;1.30;;;25.80;43.00;;;;;;5028581;28;20517;-44
2022/06/21 01:24:40;;;;;;;2.40;2.20;;;25.60;43.70;;;;;;5014919;28;20464;-44
2022/06/21 01:27:06;;;;;;;1.40;1.30;;;25.70;43.60;;;;;;5027089;28;20534;-46
2022/06/21 01:29:33;;;;;;;2.43;1.50;;;25.70;43.60;;;;;;5021705;28;20581;-46
2022/06/21 01:32:03;;;;;;;3.37;1.40;;;25.80;43.70;;;;;;5020589;28;20617;-48
2022/06/21 01:34:29;;;;;;;1.60;1.50;;;25.80;43.90;;;;;;5027220;28;21248;-47
2022/06/21 01:37:20;;;;;;;1.33;1.23;;;25.90;43.90;;;;;;5024216;28;20483;-45
2022/06/21 01:39:57;;;;;;;1.77;1.67;;;25.90;44.00;;;;;;5014426;28;20555;-45
2022/06/21 01:42:31;;;;;;;1.50;1.40;;;25.70;44.20;;;;;;5027231;28;20444;-45
2022/06/21 01:45:02;;;;;;;2.70;1.30;;;25.80;44.40;;;;;;5026761;28;20970;-43
2022/06/21 01:47:38;;;;;;;1.73;1.60;;;25.70;44.40;;;;;;5019423;28;20455;-45
2022/06/21 01:50:07;;;;;;;1.43;1.30;;;25.80;44.30;;;;;;5027992;28;20474;-48
2022/06/21 01:52:36;;;;;;;2.50;1.33;;;25.70;44.50;;;;;;5022780;28;20531;-46
2022/06/21 01:55:06;;;;;;;3.13;1.27;;;25.70;44.10;;;;;;5027247;28;20558;-44
2022/06/21 01:57:33;;;;;;;1.23;1.13;;;25.60;44.00;;;;;;5023669;28;20516;-44
2022/06/21 02:00:03;;;;;;;1.30;1.20;;;25.60;43.90;;;;;;5026810;28;20446;-46
2022/06/21 02:02:34;;;;;;;1.63;1.20;;;25.60;43.70;;;;;;5027566;28;20480;-44
2022/06/21 02:05:07;;;;;;;1.73;1.43;;;25.60;43.80;;;;;;5026919;28;20451;-43
2022/06/21 02:07:38;;;;;;;1.70;1.40;;;25.50;44.10;;;;;;5021245;28;20447;-43
2022/06/21 02:10:34;;;;;;;2.10;1.40;;;25.40;44.10;;;;;;5025276;28;20498;-43
2022/06/21 02:13:06;;;;;;;1.60;1.50;;;25.30;44.40;;;;;;5026713;28;20458;-44
2022/06/21 02:15:40;;;;;;;4.13;1.63;;;25.50;43.50;;;;;;5030877;28;20497;-48
2022/06/21 02:18:10;;;;;;;2.20;1.37;;;25.60;42.60;;;;;;5029022;28;20495;-43
2022/06/21 02:20:48;;;;;;;1.37;1.27;;;25.60;42.60;;;;;;5029658;28;20447;-45
2022/06/21 02:23:16;;;;;;;2.07;1.43;;;25.60;41.70;;;;;;5028988;28;20448;-48
2022/06/21 02:25:43;;;;;;;2.10;1.50;;;25.50;43.10;;;;;;5030302;28;20440;-45
2022/06/21 02:28:13;;;;;;;1.87;1.30;;;25.40;43.30;;;;;;5023659;28;20944;-44
2022/06/21 02:30:41;;;;;;;2.60;1.43;;;25.40;42.70;;;;;;5029224;28;20462;-44
2022/06/21 02:33:13;;;;;;;1.67;1.57;;;25.20;43.80;;;;;;5027631;28;20436;-47
2022/06/21 02:35:45;;;;;;;1.53;1.43;;;25.10;44.30;;;;;;5028067;28;20444;-45
2022/06/21 02:38:26;;;;;;;2.00;1.40;;;25.00;44.20;;;;;;5028321;28;20498;-44
2022/06/21 02:41:03;;;;;;;1.57;1.40;;;25.00;43.50;;;;;;5027662;28;20451;-44
2022/06/21 02:43:40;;;;;;;1.70;1.60;;;25.00;43.60;;;;;;5026740;28;20444;-44
2022/06/21 02:46:10;;;;;;;1.70;1.60;;;25.00;43.30;;;;;;5028406;28;20440;-44
2022/06/21 02:48:44;;;;;;;2.37;1.30;;;24.90;44.00;;;;;;5025644;28;20448;-43
2022/06/21 02:51:15;;;;;;;1.80;1.60;;;24.80;45.00;;;;;;5021210;28;20444;-43
2022/06/21 02:53:59;;;;;;;1.90;1.80;;;24.80;44.70;;;;;;5025600;28;21198;-43
2022/06/21 02:56:33;;;;;;;7.13;1.10;;;24.80;44.60;;;;;;5020788;28;20602;-43
2022/06/21 02:59:01;;;;;;;1.70;1.53;;;24.80;44.70;;;;;;5024619;28;21148;-44
2022/06/21 03:01:39;;;;;;;1.60;1.50;;;24.70;45.10;;;;;;5022348;28;20444;-43
2022/06/21 03:04:06;;;;;;;2.17;1.37;;;24.70;45.20;;;;;;5023646;28;20455;-43
2022/06/21 03:06:33;;;;;;;3.80;1.67;;;24.70;45.10;;;;;;5022735;28;20476;-45
2022/06/21 03:09:10;;;;;;;2.43;1.30;;;24.70;45.00;;;;;;5021193;28;20448;-43
2022/06/21 03:11:40;;;;;;;1.83;1.67;;;24.80;44.50;;;;;;5016348;28;21251;-44
2022/06/21 03:14:11;;;;;;;1.80;1.70;;;24.70;44.90;;;;;;5021219;28;20455;-44
2022/06/21 03:16:39;;;;;;;5.27;1.30;;;24.70;44.90;;;;;;5019976;28;20475;-44
2022/06/21 03:19:14;;;;;;;1.40;1.30;;;24.70;45.30;;;;;;5023164;28;20916;-43
2022/06/21 03:21:40;;;;;;;1.80;1.70;;;24.60;45.50;;;;;;5024555;28;20448;-43
2022/06/21 03:24:14;;;;;;;1.73;1.63;;;24.60;45.70;;;;;;5027787;28;20856;-44
2022/06/21 03:26:44;;;;;;;1.30;1.20;;;24.60;45.00;;;;;;5025526;28;20444;-43
2022/06/21 03:29:09;;;;;;;1.30;1.20;;;24.50;45.20;;;;;;5023504;28;20470;-44
2022/06/21 03:31:39;;;;;;;1.70;1.47;;;24.50;45.10;;;;;;5021281;28;20479;-44
2022/06/21 03:34:09;;;;;;;3.37;1.93;;;24.50;44.50;;;;;;5027753;28;20300;-44
2022/06/21 03:36:35;;;;;;;1.27;1.27;;;24.50;44.70;;;;;;5026870;28;20892;-44
2022/06/21 03:39:09;;;;;;;2.73;1.77;;;24.50;45.00;;;;;;5025547;28;20451;-43
2022/06/21 03:41:43;;;;;;;2.70;1.50;;;24.50;44.70;;;;;;5024669;28;21322;-44
2022/06/21 03:44:21;;;;;;;1.27;1.27;;;24.50;44.70;;;;;;5028666;28;20439;-43
2022/06/21 03:47:07;;;;;;;1.87;1.63;;;24.40;44.10;;;;;;5027558;28;20447;-43
2022/06/21 03:49:48;;;;;;;2.10;1.57;;;24.30;44.30;;;;;;5021117;28;20448;-43
2022/06/21 03:52:43;;;;;;;2.30;1.80;;;24.20;43.40;;;;;;5013985;28;20939;-45
2022/06/21 03:55:23;;;;;;;1.70;1.60;;;24.20;43.60;;;;;;5028683;28;20511;-44
2022/06/21 03:58:08;;;;;;;2.13;1.37;;;24.10;43.60;;;;;;5024468;28;20491;-44
2022/06/21 04:00:47;;;;;;;1.77;1.67;;;23.90;44.10;;;;;;5027088;28;20562;-44
2022/06/21 04:03:53;;;;;;;1.53;1.40;;;23.60;42.70;;;;;;5024025;28;20900;-43
2022/06/21 04:06:33;;;;;;;1.67;1.57;;;23.60;45.80;;;;;;5028825;28;20448;-44
2022/06/21 04:09:24;;;;;;;1.57;1.43;;;23.70;44.10;;;;;;5023951;28;20447;-43
2022/06/21 04:12:40;;;;;;;2.67;1.77;;;23.60;44.10;;;;;;5025758;28;20456;-45
2022/06/21 04:15:13;;;;;;;1.97;1.87;;;23.50;42.90;;;;;;5025308;28;20543;-45
2022/06/21 04:17:56;;;;;;;4.40;1.50;;;23.30;43.20;;;;;;5024281;28;22384;-43
2022/06/21 04:20:39;;;;;;;2.30;1.57;;;23.10;44.20;;;;;;5026702;28;21152;-43
2022/06/21 04:23:30;;;;;;;1.53;1.43;;;23.20;46.00;;;;;;5027655;28;20522;-43
2022/06/21 04:26:04;;;;;;;1.80;1.70;;;23.20;45.50;;;;;;5031113;28;20635;-44
2022/06/21 04:28:44;;;;;;;1.83;1.50;;;23.40;45.30;;;;;;5020476;28;20498;-48
2022/06/21 04:31:29;;;;;;;1.90;1.43;;;23.20;44.40;;;;;;5029019;28;20450;-48
2022/06/21 04:34:00;;;;;;;2.80;2.07;;;23.20;43.80;;;;;;5022948;28;20440;-44
2022/06/21 04:36:35;;;;;;;2.20;1.70;;;23.00;43.40;;;;;;5022717;28;20458;-45
2022/06/21 04:39:32;;;;;;;3.93;2.00;;;22.70;44.50;;;;;;5028116;28;20469;-44
2022/06/21 04:42:03;;;;;;;4.50;3.13;;;22.20;45.00;;;;;;5022081;28;20440;-44
2022/06/21 04:44:49;;;;;;;2.47;1.90;;;22.10;46.20;;;;;;5021405;28;20471;-43
2022/06/21 04:47:26;;;;;;;6.33;2.20;;;22.50;45.40;;;;;;5023891;28;20440;-43
2022/06/21 04:50:27;;;;;;;1.87;1.67;;;22.70;44.40;;;;;;5022625;28;20444;-44
2022/06/21 04:53:03;;;;;;;2.37;1.93;;;22.80;44.20;;;;;;5028675;28;20998;-45
2022/06/21 04:55:51;;;;;;;3.93;2.23;;;22.70;44.10;;;;;;5027147;28;21218;-43
2022/06/21 04:58:16;;;;;;;6.87;2.60;;;22.90;43.40;;;;;;5025763;28;20888;-45
2022/06/21 05:00:42;;;;;;;2.17;1.97;;;22.70;42.70;;;;;;5028644;28;20531;-44
2022/06/21 05:03:36;;;;;;;2.10;2.00;;;22.40;43.80;;;;;;5028156;28;20201;-44
2022/06/21 05:06:02;;;;;;;1.53;1.43;;;22.40;44.80;;;;;;5023370;28;20202;-46
2022/06/21 05:08:28;;;;;;;7.43;2.27;;;22.70;43.70;;;;;;5021796;28;20448;-44
2022/06/21 05:10:58;;;;;;;2.10;1.97;;;23.00;42.70;;;;;;5022234;28;20197;-43
2022/06/21 05:13:26;;;;;;;5.30;2.27;;;23.00;43.10;;;;;;5025187;28;20200;-42
2022/06/21 05:15:54;;;;;;;2.50;2.10;;;22.90;43.50;;;;;;5024307;28;20432;-43
2022/06/21 05:18:52;;;;;;;2.80;2.10;;;22.80;43.50;;;;;;5027388;28;20496;-43
2022/06/21 05:21:45;;;;;;;2.37;2.13;;;22.80;43.40;;;;;;5021606;28;20467;-45
2022/06/21 05:24:12;;;;;;;5.30;1.80;;;22.90;44.20;;;;;;5023498;28;21666;-42
2022/06/21 05:27:04;;;;;;;3.50;2.27;;;23.10;43.40;;;;;;5023621;28;20459;-44
2022/06/21 05:30:11;;;;;;;2.20;2.00;;;23.20;41.90;;;;;;5021021;28;20452;-43
2022/06/21 05:32:49;;;;;;;2.17;1.93;;;23.40;43.40;;;;;;4961500;28;20546;-43
2022/06/21 05:35:22;;;;;;;3.07;2.30;;;23.90;43.90;;;;;;5004068;28;20947;-43
2022/06/21 05:38:10;;;;;;;1.90;1.67;;;24.10;42.80;;;;;;5020405;28;20512;-43
2022/06/21 05:40:59;;;;;;;2.33;2.13;;;24.20;41.50;;;;;;5024861;28;20471;-43
2022/06/21 05:43:32;;;;;;;1.97;1.80;;;24.00;41.10;;;;;;5026673;28;20876;-42
2022/06/21 05:46:01;;;;;;;2.13;1.93;;;24.00;41.00;;;;;;5023601;28;20812;-44
2022/06/21 05:48:32;;;;;;;3.23;2.30;;;23.80;41.30;;;;;;5021752;28;20476;-43
2022/06/21 05:51:00;;;;;;;3.30;1.70;;;23.50;41.80;;;;;;5017181;28;20487;-44
2022/06/21 05:53:37;;;;;;;3.47;2.17;;;23.60;41.10;;;;;;5027086;28;21069;-43
2022/06/21 05:56:12;;;;;;;3.63;2.20;;;23.40;40.70;;;;;;5023180;28;20490;-43
2022/06/21 05:58:46;;;;;;;2.20;2.00;;;23.30;41.40;;;;;;5026556;28;21171;-44
2022/06/21 06:01:19;;;;;;;3.93;2.57;;;22.70;41.00;;;;;;5025378;28;20490;-43
2022/06/21 06:03:56;;;;;;;4.67;1.97;;;22.50;41.50;;;;;;5027735;28;20433;-43
2022/06/21 06:06:22;;;;;;;4.07;2.10;;;22.40;41.90;;;;;;5014649;28;20479;-44
2022/06/21 06:09:05;;;;;;;2.43;2.23;;;22.30;42.00;;;;;;5029644;28;20804;-43
2022/06/21 06:12:00;;;;;;;3.23;1.90;;;22.20;42.70;;;;;;5026832;28;20479;-43
2022/06/21 06:14:39;;;;;;;4.63;2.27;;;22.30;42.40;;;;;;5024635;28;20904;-45
2022/06/21 06:17:33;;;;;;;1.80;1.60;;;22.20;42.50;;;;;;5022650;28;20578;-44
2022/06/21 06:20:05;;;;;;;6.73;1.97;;;22.10;42.70;;;;;;5012210;28;20452;-43
2022/06/21 06:22:39;;;;;;;5.93;1.80;;;22.40;42.80;;;;;;5028305;28;20803;-43
2022/06/21 06:25:14;;;;;;;5.37;3.20;;;22.10;42.60;;;;;;5028493;28;20856;-44
2022/06/21 06:27:45;;;;;;;7.97;4.33;;;21.90;43.10;;;;;;5023393;28;20449;-42
2022/06/21 06:30:17;;;;;;;4.70;3.30;;;22.10;42.90;;;;;;5023312;28;20956;-43
2022/06/21 06:32:50;;;;;;;4.00;2.03;;;22.40;42.80;;;;;;5027707;28;20527;-42
2022/06/21 06:35:20;;;;;;;2.93;2.17;;;22.40;42.50;;;;;;5021341;28;20475;-45
2022/06/21 06:37:46;;;;;;;5.53;2.20;;;22.50;42.40;;;;;;5018876;28;20491;-43
2022/06/21 06:40:25;;;;;;;2.73;2.03;;;22.50;42.50;;;;;;5025413;28;20444;-43
2022/06/21 06:42:58;;;;;;;1.87;1.77;;;22.60;42.20;;;;;;5022052;28;20509;-43
2022/06/21 06:45:30;;;;;;;2.80;2.13;;;22.70;42.00;;;;;;5024083;28;20462;-43
2022/06/21 06:48:03;;;;;;;7.77;2.20;;;22.70;42.30;;;;;;5017795;28;20452;-43
2022/06/21 06:50:39;;;;;;;5.77;2.13;;;22.80;41.60;;;;;;5021080;28;20440;-43
2022/06/21 06:53:39;;;;;;;2.40;1.97;;;22.70;41.40;;;;;;5026184;28;20450;-44
2022/06/21 06:56:13;;;;;;;3.33;2.03;;;22.90;41.20;;;;;;5025842;28;20563;-44
2022/06/21 06:58:53;;;;;;;3.17;1.83;;;22.40;42.00;;;;;;5024670;28;21051;-43
2022/06/21 07:01:24;;;;;;;3.80;1.73;;;22.40;41.60;;;;;;5022723;28;20454;-43
2022/06/21 07:03:56;;;;;;;4.47;1.83;;;22.80;42.10;;;;;;5029727;28;20459;-42
2022/06/21 07:06:30;;;;;;;1.87;1.70;;;23.10;41.60;;;;;;5018956;28;20856;-43
2022/06/21 07:09:04;;;;;;;2.53;2.03;;;23.10;41.30;;;;;;5028445;28;20458;-44
2022/06/21 07:11:39;;;;;;;3.87;2.43;;;23.40;40.90;;;;;;5013972;28;20558;-43
2022/06/21 07:14:12;;;;;;;1.93;1.80;;;23.60;40.60;;;;;;5020005;28;20448;-43
2022/06/21 07:16:39;;;;;;;2.00;1.90;;;23.70;39.50;;;;;;5027240;28;20443;-43
2022/06/21 07:19:07;;;;;;;3.47;1.77;;;23.50;39.50;;;;;;5028342;28;21412;-43
2022/06/21 07:21:34;;;;;;;2.40;1.80;;;23.50;39.90;;;;;;5028617;28;20467;-43
2022/06/21 07:24:00;;;;;;;4.00;1.80;;;23.60;39.80;;;;;;5023954;28;20447;-43
2022/06/21 07:26:39;;;;;;;1.80;1.70;;;23.40;39.90;;;;;;5028767;28;20955;-43
2022/06/21 07:29:29;;;;;;;4.23;1.80;;;23.40;39.60;;;;;;5029258;28;20235;-42
2022/06/21 07:32:02;;;;;;;3.33;2.07;;;23.60;39.50;;;;;;5024829;28;20452;-45
2022/06/21 07:34:43;;;;;;;5.17;1.83;;;23.70;39.50;;;;;;5026048;28;21260;-47
2022/06/21 07:37:16;;;;;;;4.80;2.00;;;23.90;38.60;;;;;;5028075;28;20591;-48
2022/06/21 07:39:51;;;;;;;3.77;2.20;;;24.00;39.10;;;;;;5029241;28;21002;-46
2022/06/21 07:42:36;;;;;;;3.57;2.47;;;24.30;38.60;;;;;;5028479;28;20443;-46
2022/06/21 07:45:06;;;;;;;1.97;1.70;;;24.20;38.50;;;;;;5026915;28;20519;-47
2022/06/21 07:47:56;;;;;;;3.07;2.13;;;24.40;38.60;;;;;;5028422;28;20440;-45
2022/06/21 07:50:32;;;;;;;1.80;1.70;;;24.50;38.20;;;;;;5028449;28;20452;-45
2022/06/21 07:53:05;;;;;;;2.47;2.03;;;24.60;38.10;;;;;;5027680;28;20452;-45
2022/06/21 07:55:38;;;;;;;6.67;2.77;;;24.80;38.30;;;;;;5028080;28;20475;-46
2022/06/21 07:58:21;;;;;;;2.57;1.90;;;25.00;38.30;;;;;;5028007;28;20487;-43
2022/06/21 08:06:41;;;;;;;2.80;2.00;;;25.10;38.10;;;;;;5020301;28;20463;-45
2022/06/21 08:09:27;;;;;;;3.53;1.93;;;25.10;38.20;;;;;;5029252;28;20451;-47
2022/06/21 08:12:00;;;;;;;2.80;2.50;;;25.10;37.90;;;;;;5026709;28;20444;-48
2022/06/21 08:14:28;;;;;;;3.30;2.77;;;25.20;38.20;;;;;;5013358;28;20452;-47
2022/06/21 08:17:02;;;;;;;3.10;2.27;;;25.30;38.50;;;;;;5025352;28;20541;-50
2022/06/21 08:19:36;;;;;;;3.43;2.00;;;25.60;38.40;;;;;;5031465;28;20630;-48
2022/06/21 08:22:09;;;;;;;3.33;2.03;;;25.30;37.80;;;;;;5032229;28;20447;-45
2022/06/21 08:24:50;;;;;;;3.03;2.10;;;25.30;38.40;;;;;;5031358;28;20547;-45
2022/06/21 08:27:57;;;;;;;3.77;2.17;;;25.30;38.30;;;;;;5030981;28;20571;-45
2022/06/21 08:30:36;;;;;;;3.50;2.07;;;25.30;38.10;;;;;;5000388;28;20816;-49
2022/06/21 08:33:08;;;;;;;2.80;1.90;;;25.70;38.40;;;;;;5019341;28;20448;-48
2022/06/21 08:35:40;;;;;;;4.40;2.20;;;25.90;38.30;;;;;;5031218;28;20460;-49
2022/06/21 08:38:35;;;;;;;2.80;1.97;;;25.40;38.60;;;;;;5027868;28;20817;-45
2022/06/21 08:44:49;;;;;;;3.43;2.27;;;25.20;39.20;;;;;;5029646;28;20535;-46
2022/06/21 08:47:32;;;;;;;2.60;1.80;;;25.00;39.10;;;;;;5018206;28;20457;-49
2022/06/21 08:50:09;;;;;;;3.03;2.10;;;25.00;39.10;;;;;;5023812;28;20439;-46
2022/06/21 08:52:47;;;;;;;4.33;2.00;;;25.30;39.00;;;;;;5031415;28;20444;-48
2022/06/21 08:55:24;;;;;;;2.27;2.07;;;25.40;38.70;;;;;;5030274;28;20525;-45
2022/06/21 08:58:24;;;;;;;3.93;1.97;;;25.50;38.70;;;;;;5027924;28;20487;-45
2022/06/21 09:01:20;;;;;;;2.83;1.90;;;25.50;39.00;;;;;;5024275;28;20444;-45
2022/06/21 09:04:24;;;;;;;2.67;1.97;;;25.70;38.60;;;;;;5024434;28;20448;-45
2022/06/21 09:06:53;;;;;;;2.43;2.17;;;26.00;37.80;;;;;;4985805;28;20452;-45
2022/06/21 09:09:35;;;;;;;2.20;2.00;;;25.80;38.00;;;;;;5029106;28;20448;-45
2022/06/21 09:12:11;;;;;;;2.27;2.00;;;26.00;38.20;;;;;;5021031;28;20547;-43
2022/06/21 09:14:54;;;;;;;4.47;2.50;;;26.00;38.40;;;;;;5024527;28;20545;-43
2022/06/21 09:17:38;;;;;;;4.23;2.20;;;26.10;38.50;;;;;;5026554;28;20491;-43
2022/06/21 09:20:22;;;;;;;3.50;2.60;;;26.20;38.90;;;;;;5026798;28;20943;-42
2022/06/21 09:23:07;;;;;;;3.17;1.80;;;25.90;38.80;;;;;;5025378;28;20479;-45
2022/06/21 09:25:44;;;;;;;3.47;2.23;;;26.00;39.20;;;;;;5028488;28;20455;-48
2022/06/21 09:28:14;;;;;;;2.20;1.97;;;26.40;39.20;;;;;;5029847;28;20494;-49
2022/06/21 09:30:48;;;;;;;3.23;2.53;;;26.50;37.90;;;;;;5023893;28;20946;-45
2022/06/21 09:33:22;;;;;;;3.23;2.53;;;26.60;37.60;;;;;;5024391;28;20439;-45
2022/06/21 09:36:03;;;;;;;2.77;2.17;;;26.70;38.30;;;;;;5027712;28;20436;-47
2022/06/21 09:38:57;;;;;;;5.50;2.67;;;26.70;38.20;;;;;;5027542;28;20487;-44
2022/06/21 09:42:10;;;;;;;3.00;2.70;;;26.90;37.70;;;;;;5020720;28;20456;-42
2022/06/21 09:44:46;;;;;;;3.10;2.00;;;27.20;37.30;;;;;;4980981;28;20479;-45
2022/06/21 09:47:17;;;;;;;2.37;2.10;;;27.30;36.60;;;;;;5027293;28;20451;-43
2022/06/21 09:49:50;;;;;;;3.70;2.77;;;27.40;36.30;;;;;;5029405;28;20475;-47
2022/06/21 09:52:25;;;;;;;3.87;2.07;;;27.50;36.10;;;;;;5022993;28;20477;-45
2022/06/21 09:55:26;;;;;;;5.13;2.50;;;27.70;36.10;;;;;;5028218;28;21251;-45
2022/06/21 09:58:00;;;;;;;3.07;2.77;;;28.10;36.20;;;;;;5016725;28;20595;-45
2022/06/21 10:00:45;;;;;;;8.43;2.60;;;28.10;35.80;;;;;;5022567;28;20512;-46
2022/06/21 10:03:32;;;;;;;3.43;2.57;;;28.10;35.90;;;;;;5016373;28;20444;-46
2022/06/21 10:06:15;;;;;;;5.10;2.70;;;28.40;35.40;;;;;;5026116;28;21008;-46
2022/06/21 10:09:13;;;;;;;2.87;2.57;;;28.60;35.40;;;;;;5025897;28;20457;-44
2022/06/21 10:11:53;;;;;;;4.43;2.43;;;28.50;35.80;;;;;;5021411;28;20463;-44
2022/06/21 10:14:29;;;;;;;2.67;2.40;;;28.60;36.60;;;;;;5026291;28;20455;-44
2022/06/21 10:17:17;;;;;;;2.70;2.50;;;29.00;35.80;;;;;;5027065;28;20526;-47
2022/06/21 10:20:13;;;;;;;4.20;2.40;;;29.10;35.60;;;;;;5025670;28;21196;-43
2022/06/21 10:22:44;;;;;;;5.13;2.43;;;29.00;35.80;;;;;;5023635;28;20543;-44
2022/06/21 10:25:20;;;;;;;2.97;2.43;;;28.90;35.90;;;;;;5020140;28;20806;-44
2022/06/21 10:28:01;;;;;;;3.33;2.63;;;29.10;35.30;;;;;;5025111;28;20444;-47
2022/06/21 10:31:03;;;;;;;2.87;2.67;;;28.60;36.90;;;;;;5021201;28;20443;-46
2022/06/21 10:33:49;;;;;;;4.03;2.90;;;29.00;36.10;;;;;;5023082;28;20828;-44
2022/06/21 10:36:52;;;;;;;2.90;2.70;;;29.40;35.20;;;;;;5020231;28;20451;-44
2022/06/21 10:39:53;;;;;;;6.17;3.60;;;29.80;34.30;;;;;;5024400;28;20975;-43
2022/06/21 10:42:46;;;;;;;6.60;3.23;;;30.20;34.90;;;;;;5022585;28;20475;-43
2022/06/21 10:45:36;;;;;;;4.33;3.00;;;30.30;34.80;;;;;;5026412;28;20497;-44
2022/06/21 10:48:39;;;;;;;5.13;3.40;;;30.50;34.10;;;;;;5024153;28;20451;-44
2022/06/21 10:51:04;;;;;;;5.37;3.57;;;30.40;34.50;;;;;;5023953;28;20815;-46
2022/06/21 10:54:16;;;;;;;4.97;2.90;;;30.20;34.40;;;;;;5024098;28;20448;-45
2022/06/21 10:57:09;;;;;;;3.60;3.23;;;30.40;34.90;;;;;;5026949;28;20217;-45
2022/06/21 11:02:48;;;;;;;6.20;3.23;;;30.30;35.00;;;;;;5028217;28;20819;-44
2022/06/21 11:05:33;;;;;;;5.47;3.47;;;30.10;35.20;;;;;;5025435;28;20451;-43
2022/06/21 11:08:16;;;;;;;4.53;2.80;;;30.00;35.80;;;;;;5019165;28;20494;-44
2022/06/21 11:10:50;;;;;;;4.03;3.00;;;30.10;35.80;;;;;;5026117;28;20448;-46
2022/06/21 11:13:18;;;;;;;4.37;3.43;;;30.40;36.20;;;;;;5021554;28;20847;-44
2022/06/21 11:16:12;;;;;;;6.63;3.23;;;30.40;35.50;;;;;;5028358;28;20916;-47
2022/06/21 11:18:53;;;;;;;4.07;3.10;;;30.80;35.70;;;;;;5013949;28;20495;-43
2022/06/21 11:21:46;;;;;;;4.73;2.90;;;30.50;36.10;;;;;;5024377;28;20455;-45
2022/06/21 11:24:31;;;;;;;4.30;2.97;;;30.80;35.70;;;;;;5019257;28;20458;-44
2022/06/21 11:27:15;;;;;;;4.27;3.00;;;31.50;34.60;;;;;;5022706;28;20853;-46
2022/06/21 11:29:49;;;;;;;4.57;3.30;;;31.80;34.20;;;;;;5020883;28;20517;-45
2022/06/21 11:32:30;;;;;;;5.37;3.00;;;31.90;34.00;;;;;;5022133;28;20440;-44
2022/06/21 11:35:16;;;;;;;3.70;3.03;;;32.30;33.60;;;;;;5018067;28;20471;-45
2022/06/21 11:37:51;;;;;;;3.83;3.43;;;32.50;33.60;;;;;;5024630;28;20517;-44
2022/06/21 11:40:29;;;;;;;3.50;2.93;;;32.80;32.90;;;;;;5026659;28;20939;-44
2022/06/21 11:42:57;;;;;;;5.10;3.10;;;32.80;33.40;;;;;;5028711;28;20451;-45
2022/06/21 11:45:47;;;;;;;4.23;3.63;;;32.70;33.20;;;;;;5025574;28;20448;-44
2022/06/21 11:48:23;;;;;;;3.40;3.17;;;32.50;33.60;;;;;;5018525;28;20455;-43
2022/06/21 11:51:09;;;;;;;3.10;2.90;;;32.30;33.50;;;;;;5027929;28;20475;-45
2022/06/21 11:54:03;;;;;;;3.30;3.00;;;32.30;34.00;;;;;;5030136;28;20448;-45
2022/06/21 11:56:37;;;;;;;6.53;3.30;;;32.50;33.90;;;;;;5021587;28;20875;-44
2022/06/21 11:59:28;;;;;;;3.83;3.40;;;32.00;34.50;;;;;;5027315;28;20489;-46
2022/06/21 12:02:29;;;;;;;6.47;3.63;;;32.00;35.50;;;;;;5026882;28;21171;-44
2022/06/21 12:05:06;;;;;;;5.77;3.47;;;32.30;35.40;;;;;;5031233;28;20476;-44
2022/06/21 12:07:41;;;;;;;4.37;3.40;;;32.60;34.50;;;;;;5026562;28;20959;-46
2022/06/21 12:10:15;;;;;;;5.23;3.50;;;32.40;34.50;;;;;;5029776;28;20443;-44
2022/06/21 12:12:52;;;;;;;5.27;3.00;;;32.30;35.00;;;;;;5026327;28;20456;-45
2022/06/21 12:15:26;;;;;;;4.83;3.70;;;32.20;35.00;;;;;;5029105;28;20447;-46
2022/06/21 12:18:04;;;;;;;4.13;3.83;;;32.50;34.70;;;;;;5021335;28;20509;-47
2022/06/21 12:20:48;;;;;;;5.23;3.70;;;32.60;34.60;;;;;;5026649;28;20455;-45
2022/06/21 12:23:25;;;;;;;4.03;3.63;;;32.40;34.90;;;;;;5024280;28;20447;-45
2022/06/21 12:25:52;;;;;;;4.83;4.40;;;32.40;35.40;;;;;;5029171;28;20551;-45
2022/06/21 12:28:21;;;;;;;6.97;3.90;;;32.20;35.00;;;;;;5029710;28;20436;-45
2022/06/21 12:30:47;;;;;;;4.63;4.20;;;31.90;36.30;;;;;;5023015;28;20838;-44
2022/06/21 12:33:16;;;;;;;4.27;3.90;;;32.00;36.70;;;;;;5028247;28;20452;-45
2022/06/21 12:36:13;;;;;;;4.03;3.60;;;32.00;36.00;;;;;;5029160;28;20200;-44
2022/06/21 12:38:57;;;;;;;5.47;4.20;;;32.00;36.00;;;;;;5021320;28;20822;-46
2022/06/21 12:41:53;;;;;;;4.60;4.13;;;32.20;36.00;;;;;;5026324;28;20447;-44
2022/06/21 12:44:39;;;;;;;4.30;3.80;;;32.30;36.10;;;;;;5024879;28;20510;-45
2022/06/21 12:47:25;;;;;;;4.00;3.70;;;32.20;36.00;;;;;;5025034;28;20460;-45
2022/06/21 12:50:24;;;;;;;6.37;4.03;;;31.40;36.90;;;;;;5022702;28;20453;-45
2022/06/21 12:53:08;;;;;;;5.30;3.60;;;31.10;37.70;;;;;;5027942;28;20927;-45
2022/06/21 12:55:46;;;;;;;3.70;3.30;;;31.40;37.50;;;;;;5017592;28;20491;-48
2022/06/21 12:58:25;;;;;;;3.73;3.53;;;31.20;37.50;;;;;;5012399;28;20495;-44
2022/06/21 13:00:57;;;;;;;4.60;3.57;;;31.20;37.40;;;;;;5021936;28;20455;-46
2022/06/21 13:03:43;;;;;;;4.27;3.87;;;31.40;37.20;;;;;;5028911;28;20451;-45
2022/06/21 13:06:32;;;;;;;4.00;3.77;;;31.70;37.10;;;;;;5025667;28;20439;-47
2022/06/21 13:09:29;;;;;;;4.23;3.60;;;31.70;36.80;;;;;;5028463;28;20456;-45
2022/06/21 13:12:16;;;;;;;6.43;3.60;;;32.00;37.10;;;;;;5024648;28;20466;-49
2022/06/21 13:14:41;;;;;;;4.27;3.90;;;32.00;36.70;;;;;;5029642;28;20518;-46
2022/06/21 13:17:22;;;;;;;8.80;5.90;;;31.90;36.90;;;;;;5024376;28;20492;-45
2022/06/21 13:19:50;;;;;;;4.40;4.10;;;31.80;37.10;;;;;;5015691;28;20610;-46
2022/06/21 13:22:41;;;;;;;3.90;3.60;;;31.50;36.80;;;;;;5027192;28;20448;-45
2022/06/21 13:25:34;;;;;;;3.53;3.30;;;31.40;37.00;;;;;;5027760;28;20960;-46
2022/06/21 13:28:30;;;;;;;4.27;3.87;;;31.80;36.60;;;;;;5019690;28;20498;-44
2022/06/21 13:31:09;;;;;;;5.20;3.40;;;31.80;36.90;;;;;;5024892;28;20531;-46
2022/06/21 13:33:35;;;;;;;5.70;3.67;;;32.10;36.70;;;;;;5028438;28;20440;-45
2022/06/21 13:36:21;;;;;;;6.53;4.30;;;32.30;35.90;;;;;;5024131;28;20440;-45
2022/06/21 13:38:56;;;;;;;4.17;3.63;;;32.50;36.00;;;;;;5029614;28;20223;-45
2022/06/21 13:44:51;;;;;;;5.40;3.93;;;32.80;35.40;;;;;;5026673;28;20497;-47
2022/06/21 13:47:29;;;;;;;5.20;3.80;;;33.00;35.20;;;;;;5020665;28;20863;-45
2022/06/21 13:50:19;;;;;;;4.80;4.00;;;32.50;35.80;;;;;;5024165;28;20440;-45
2022/06/21 13:53:24;;;;;;;4.70;3.93;;;32.70;36.10;;;;;;5021564;28;22284;-44
2022/06/21 13:56:01;;;;;;;5.40;3.40;;;33.10;35.60;;;;;;5022478;28;20539;-46
2022/06/21 13:58:39;;;;;;;6.33;3.73;;;33.10;35.10;;;;;;5023745;28;20491;-44
2022/06/21 14:01:24;;;;;;;5.30;3.80;;;33.40;34.80;;;;;;5018714;28;20444;-46